Terminal Aerodrome Forecast
Issued by NWS

Home | Current Version | Previous Version | Text Only | Print | Product List | Glossary On
Versions: 1 2 3 4 5 6 7 8 9 10 11 12 13 14 15 16 17 18 19 20 21 22 23 24
000
FTUS42 KMFL 191744
TAFOPF
TAF
KOPF 191744Z 1918/2018 28008KT P6SM SKC
     FM200100 VRB03KT P6SM SCT025 SCT040 BKN250
     FM200900 02008KT P6SM SCT025 BKN050 OVC250
     FM201400 07012KT P6SM SCT035 BKN045 OVC250=

USA.gov is the U.S. government's official web portal to all federal, state and local government web resources and services.